Time;durP1;ratioP1;P1;durP2;ratioP2;P2;SDS_P1;SDS_P2;PMS_P1;PMS_P2;Temp;Humidity;BMP_temperature;BMP_pressure;BME280_temperature;BME280_humidity;BME280_pressure;Samples;Min_cycle;Max_cycle;Signal;HPM_P1;HPM_P2
2022/10/18 00:01:09;;;;;;;25.83;19.73;;;;;;;14.09;100.00;102419.44;5049103;28;20110;-47
2022/10/18 00:03:37;;;;;;;25.33;20.25;;;;;;;14.10;100.00;102421.13;5049384;28;20076;-51
2022/10/18 00:06:07;;;;;;;26.52;19.90;;;;;;;14.11;100.00;102411.41;5052650;28;20563;-50
2022/10/18 00:08:37;;;;;;;23.38;18.15;;;;;;;14.12;100.00;102408.66;5052544;28;20175;-49
2022/10/18 00:11:07;;;;;;;24.48;17.95;;;;;;;14.13;100.00;102417.47;5049010;28;20041;-48
2022/10/18 00:13:35;;;;;;;30.60;19.35;;;;;;;14.13;100.00;102417.47;5031292;28;20076;-49
2022/10/18 00:16:06;;;;;;;33.50;20.40;;;;;;;14.13;100.00;102415.66;5052400;28;20045;-50
2022/10/18 00:18:35;;;;;;;40.40;19.60;;;;;;;14.16;100.00;102407.56;5052099;28;20581;-51
2022/10/18 00:21:05;;;;;;;26.98;18.85;;;;;;;14.18;100.00;102412.78;5052335;28;20049;-51
2022/10/18 00:23:35;;;;;;;33.72;18.70;;;;;;;14.15;100.00;102408.53;5052265;28;20434;-50
2022/10/18 00:26:05;;;;;;;22.00;17.35;;;;;;;14.15;100.00;102413.81;5052299;28;20488;-51
2022/10/18 00:28:34;;;;;;;41.65;19.30;;;;;;;14.19;100.00;102414.47;5050613;28;20466;-52
2022/10/18 00:31:11;;;;;;;31.42;19.02;;;;;;;14.21;100.00;102412.59;5048162;28;20547;-51
2022/10/18 00:33:41;;;;;;;22.00;17.15;;;;;;;14.20;100.00;102401.16;5051308;28;20445;-47
2022/10/18 00:36:10;;;;;;;25.88;17.88;;;;;;;14.23;100.00;102409.88;5052138;28;20103;-51
2022/10/18 00:38:38;;;;;;;19.83;16.67;;;;;;;14.24;100.00;102407.13;5051934;28;20045;-50
2022/10/18 00:41:08;;;;;;;25.52;16.02;;;;;;;14.25;100.00;102411.50;5051945;28;20044;-50
2022/10/18 00:43:52;;;;;;;39.58;18.90;;;;;;;14.27;100.00;102409.59;5052182;28;20441;-51
2022/10/18 00:46:21;;;;;;;36.25;17.15;;;;;;;14.40;100.00;102416.84;5051918;28;20049;-51
2022/10/18 00:48:51;;;;;;;27.90;18.35;;;;;;;14.35;100.00;102415.31;5051462;28;20555;-49
2022/10/18 00:51:22;;;;;;;42.63;19.90;;;;;;;14.33;100.00;102409.28;5048419;28;20926;-56
2022/10/18 00:53:50;;;;;;;26.95;18.17;;;;;;;14.35;100.00;102411.81;5048720;28;20466;-56
2022/10/18 00:56:19;;;;;;;30.08;18.77;;;;;;;14.34;100.00;102411.00;5050757;28;20045;-55
2022/10/18 00:58:49;;;;;;;22.70;16.40;;;;;;;14.34;100.00;102411.00;5051591;28;20407;-55
2022/10/18 01:01:17;;;;;;;21.25;16.27;;;;;;;14.35;100.00;102420.59;5050481;28;20052;-56
2022/10/18 01:03:45;;;;;;;26.77;17.30;;;;;;;14.35;100.00;102417.13;5046257;28;20052;-56
2022/10/18 01:06:15;;;;;;;21.00;16.40;;;;;;;14.37;100.00;102418.75;5049772;28;20049;-55
2022/10/18 01:08:58;;;;;;;23.48;16.40;;;;;;;14.39;100.00;102416.00;5051792;28;20073;-55
2022/10/18 01:11:53;;;;;;;22.73;17.35;;;;;;;14.39;100.00;102410.72;5051682;28;20077;-55
2022/10/18 01:14:34;;;;;;;28.27;18.85;;;;;;;14.41;100.00;102414.16;5049095;28;20143;-56
2022/10/18 01:17:08;;;;;;;34.50;18.38;;;;;;;14.42;100.00;102417.63;5051792;28;20049;-56
2022/10/18 01:20:15;;;;;;;24.35;19.75;;;;;;;14.43;100.00;102417.53;5047141;28;20045;-56
2022/10/18 01:22:48;;;;;;;23.10;17.92;;;;;;;14.43;100.00;102422.00;5030732;28;20489;-56
2022/10/18 01:25:29;;;;;;;21.73;17.27;;;;;;;14.45;100.00;102428.03;5047904;28;20053;-58
2022/10/18 01:28:07;;;;;;;24.75;18.25;;;;;;;14.45;100.00;102425.38;5050726;28;20152;-56
2022/10/18 01:30:46;;;;;;;21.10;16.73;;;;;;;14.49;100.00;102425.16;5033222;28;20045;-56
2022/10/18 01:33:21;;;;;;;22.92;17.65;;;;;;;14.46;100.00;102420.00;5045476;28;20056;-56
2022/10/18 01:35:54;;;;;;;23.42;18.00;;;;;;;14.46;100.00;102424.47;5048277;28;20080;-56
2022/10/18 01:38:25;;;;;;;21.60;17.63;;;;;;;14.50;100.00;102423.34;5050843;28;20518;-56
2022/10/18 01:40:55;;;;;;;21.38;17.55;;;;;;;14.48;100.00;102419.91;5047843;28;20052;-56
2022/10/18 01:43:25;;;;;;;24.95;17.20;;;;;;;14.47;100.00;102418.22;5049349;28;20545;-56
2022/10/18 01:45:56;;;;;;;20.20;15.90;;;;;;;14.46;100.00;102417.34;5051700;28;20475;-56
2022/10/18 01:48:25;;;;;;;24.45;19.05;;;;;;;14.48;100.00;102412.84;5053489;28;20049;-57
2022/10/18 01:50:53;;;;;;;22.00;16.85;;;;;;;14.47;100.00;102411.13;5052108;28;20523;-56
2022/10/18 01:53:28;;;;;;;21.27;16.48;;;;;;;14.49;100.00;102421.63;5051522;28;20048;-56
2022/10/18 01:56:19;;;;;;;22.75;16.08;;;;;;;14.48;100.00;102417.25;5051594;28;20048;-56
2022/10/18 01:59:01;;;;;;;19.27;16.23;;;;;;;14.47;100.00;102413.78;5051141;28;20052;-56
2022/10/18 02:01:39;;;;;;;19.42;16.20;;;;;;;14.48;100.00;102414.63;5054277;28;20068;-56
2022/10/18 02:04:19;;;;;;;29.20;19.08;;;;;;;14.47;100.00;102427.00;5053410;28;20045;-56
2022/10/18 02:06:54;;;;;;;29.33;18.17;;;;;;;14.49;100.00;102435.75;5051526;28;20052;-56
2022/10/18 02:09:31;;;;;;;23.75;16.42;;;;;;;14.48;100.00;102423.44;5051463;28;20045;-56
2022/10/18 02:12:02;;;;;;;26.70;19.23;;;;;;;14.50;100.00;102412.75;5054272;28;20049;-57
2022/10/18 02:14:32;;;;;;;27.08;19.20;;;;;;;14.51;100.00;102414.47;5054744;28;20514;-56
2022/10/18 02:17:05;;;;;;;23.67;17.90;;;;;;;14.51;100.00;102419.75;5054601;28;20037;-56
2022/10/18 02:19:37;;;;;;;31.58;20.70;;;;;;;14.50;100.00;102418.06;5052295;28;20805;-56
2022/10/18 02:22:08;;;;;;;28.75;20.52;;;;;;;14.54;100.00;102424.88;5051025;28;20036;-56
2022/10/18 02:24:39;;;;;;;54.97;21.90;;;;;;;14.52;100.00;102418.84;5054478;28;20409;-56
2022/10/18 02:27:07;;;;;;;44.22;26.27;;;;;;;14.50;100.00;102418.88;5053006;28;20461;-56
2022/10/18 02:29:36;;;;;;;36.47;24.23;;;;;;;14.52;100.00;102417.03;5032660;28;20445;-56
2022/10/18 02:32:11;;;;;;;38.00;24.48;;;;;;;14.52;100.00;102417.03;5053231;28;20045;-56
2022/10/18 02:34:42;;;;;;;54.05;27.02;;;;;;;14.52;100.00;102419.66;5054233;28;20045;-57
2022/10/18 02:37:11;;;;;;;37.55;26.30;;;;;;;14.51;100.00;102425.06;5050535;28;20052;-56
2022/10/18 02:39:45;;;;;;;45.60;26.75;;;;;;;14.52;100.00;102424.97;5051373;28;20134;-56
2022/10/18 02:42:14;;;;;;;39.28;26.38;;;;;;;14.53;100.00;102429.31;5050191;28;20413;-55
2022/10/18 02:44:43;;;;;;;37.08;25.25;;;;;;;14.53;100.00;102417.88;5052451;28;20131;-56
2022/10/18 02:47:12;;;;;;;43.45;27.80;;;;;;;14.53;100.00;102420.50;5054155;28;20068;-56
2022/10/18 02:49:40;;;;;;;38.38;26.23;;;;;;;14.52;100.00;102422.31;5053981;28;20068;-56
2022/10/18 02:52:08;;;;;;;43.05;25.42;;;;;;;14.53;100.00;102424.03;5052617;28;20381;-56
2022/10/18 02:54:36;;;;;;;40.28;24.63;;;;;;;14.53;100.00;102418.75;5050681;28;20055;-56
2022/10/18 02:57:04;;;;;;;46.42;26.23;;;;;;;14.53;100.00;102409.94;5050730;28;20045;-55
2022/10/18 02:59:34;;;;;;;41.58;27.02;;;;;;;14.55;100.00;102418.66;5050607;28;20045;-55
2022/10/18 03:02:03;;;;;;;41.92;27.40;;;;;;;14.53;100.00;102425.81;5049830;28;20060;-54
2022/10/18 03:04:32;;;;;;;36.22;25.33;;;;;;;14.53;100.00;102428.44;5053932;28;20462;-48
2022/10/18 03:07:00;;;;;;;36.03;26.08;;;;;;;14.53;100.00;102428.44;5053643;28;20044;-50
2022/10/18 03:09:28;;;;;;;38.97;26.27;;;;;;;14.52;100.00;102424.13;5053762;28;20076;-52
2022/10/18 03:11:57;;;;;;;39.58;26.85;;;;;;;14.53;100.00;102429.31;5035571;28;20049;-51
2022/10/18 03:14:25;;;;;;;43.40;26.27;;;;;;;14.52;100.00;102419.66;5053782;28;20048;-50
2022/10/18 03:16:53;;;;;;;38.60;26.25;;;;;;;14.52;100.00;102422.31;5053453;28;20045;-49
2022/10/18 03:19:21;;;;;;;37.80;26.52;;;;;;;14.60;100.00;102415.72;5053360;28;20067;-50
2022/10/18 03:21:51;;;;;;;36.17;25.38;;;;;;;14.53;100.00;102420.50;5053224;28;20041;-50
2022/10/18 03:24:19;;;;;;;38.00;26.45;;;;;;;14.50;100.00;102418.06;5050905;28;20044;-49
2022/10/18 03:26:47;;;;;;;36.85;25.55;;;;;;;14.48;100.00;102419.91;5050146;28;20053;-51
2022/10/18 03:29:15;;;;;;;33.70;23.02;;;;;;;14.45;100.00;102428.91;5049570;28;20049;-49
2022/10/18 03:31:43;;;;;;;27.98;21.40;;;;;;;14.45;100.00;102423.63;5051149;28;20053;-51
2022/10/18 03:34:12;;;;;;;31.83;23.30;;;;;;;14.41;100.00;102424.72;5053252;28;20520;-47
2022/10/18 03:36:41;;;;;;;33.53;24.58;;;;;;;14.40;100.00;102425.66;5053179;28;20044;-52
2022/10/18 03:39:11;;;;;;;32.53;23.05;;;;;;;14.39;100.00;102429.25;5053026;28;20399;-50
2022/10/18 03:41:40;;;;;;;35.88;24.65;;;;;;;14.39;100.00;102436.34;5052786;28;20045;-50
2022/10/18 03:44:08;;;;;;;33.17;24.40;;;;;;;14.38;100.00;102435.47;5053032;28;20401;-53
2022/10/18 03:46:36;;;;;;;31.10;23.75;;;;;;;14.35;100.00;102431.19;5053102;28;20064;-52
2022/10/18 03:49:04;;;;;;;31.23;22.90;;;;;;;14.34;100.00;102428.63;5049772;28;20051;-48
2022/10/18 03:51:32;;;;;;;36.92;23.60;;;;;;;14.34;100.00;102426.88;5049667;28;20044;-50
2022/10/18 03:54:02;;;;;;;32.90;25.70;;;;;;;14.32;100.00;102431.38;5052835;28;20049;-52
2022/10/18 03:56:32;;;;;;;39.50;24.92;;;;;;;14.26;100.00;102431.72;5051384;28;20707;-50
2022/10/18 03:59:01;;;;;;;30.33;24.10;;;;;;;14.26;100.00;102425.56;5049384;28;20059;-53
2022/10/18 04:01:29;;;;;;;31.50;24.77;;;;;;;14.23;100.00;102421.28;5051013;28;20495;-49
2022/10/18 04:03:57;;;;;;;29.52;23.05;;;;;;;14.24;100.00;102428.31;5052606;28;20068;-52
2022/10/18 04:06:25;;;;;;;29.65;23.52;;;;;;;14.23;100.00;102431.03;5052128;28;20053;-50
2022/10/18 04:08:56;;;;;;;30.65;22.90;;;;;;;14.18;100.00;102424.22;5052520;28;20072;-52
2022/10/18 04:11:24;;;;;;;34.33;23.80;;;;;;;14.17;100.00;102426.94;5052510;28;20044;-51
2022/10/18 04:13:53;;;;;;;30.58;22.40;;;;;;;14.15;100.00;102428.81;5052207;28;20570;-48
2022/10/18 04:16:21;;;;;;;27.83;21.33;;;;;;;14.15;100.00;102434.09;5052484;28;20048;-49
2022/10/18 04:18:50;;;;;;;27.50;21.63;;;;;;;14.15;100.00;102434.09;5030999;28;20057;-47
2022/10/18 04:21:18;;;;;;;28.52;21.13;;;;;;;14.13;100.00;102431.53;5032300;28;20076;-51
2022/10/18 04:23:47;;;;;;;30.23;21.90;;;;;;;14.12;100.00;102432.47;5032286;28;20075;-51
2022/10/18 04:26:16;;;;;;;31.70;23.13;;;;;;;14.13;100.00;102430.69;5032412;28;20053;-50
2022/10/18 04:28:44;;;;;;;31.80;22.83;;;;;;;14.12;100.00;102423.69;5032195;28;20136;-51
2022/10/18 04:31:13;;;;;;;32.00;22.42;;;;;;;14.09;100.00;102419.44;5032198;28;20084;-48
2022/10/18 04:33:41;;;;;;;33.17;23.35;;;;;;;14.09;100.00;102424.72;5032059;28;20111;-51
2022/10/18 04:36:09;;;;;;;31.92;22.60;;;;;;;14.11;100.00;102427.28;5029721;28;20140;-50
2022/10/18 04:38:38;;;;;;;29.95;22.70;;;;;;;14.09;100.00;102429.16;5029446;28;20050;-51
2022/10/18 04:41:06;;;;;;;26.55;19.90;;;;;;;14.07;100.00;102423.09;5030632;28;20045;-52
2022/10/18 04:43:34;;;;;;;30.08;22.90;;;;;;;14.06;100.00;102416.97;5031983;28;20107;-51
2022/10/18 04:46:02;;;;;;;29.75;22.23;;;;;;;14.04;100.00;102424.09;5031805;28;20053;-50
2022/10/18 04:48:31;;;;;;;28.17;21.42;;;;;;;14.03;100.00;102414.50;5031257;28;20054;-51
2022/10/18 04:50:59;;;;;;;30.98;21.27;;;;;;;14.01;100.00;102421.63;5028538;28;20107;-46
2022/10/18 04:53:27;;;;;;;27.35;20.58;;;;;;;14.02;100.00;102429.47;5028783;28;20403;-52
2022/10/18 04:55:55;;;;;;;29.58;21.67;;;;;;;13.97;100.00;102426.22;5027954;28;20085;-50
2022/10/18 04:58:24;;;;;;;32.88;23.15;;;;;;;13.93;100.00;102434.44;5031064;28;20119;-50
2022/10/18 05:00:52;;;;;;;34.63;24.30;;;;;;;13.90;100.00;102438.09;5029931;28;20393;-56
2022/10/18 05:03:20;;;;;;;30.75;23.08;;;;;;;13.93;100.00;102443.19;5026542;28;20045;-55
2022/10/18 05:05:49;;;;;;;33.50;23.63;;;;;;;13.93;100.00;102443.19;5029694;28;20480;-56
2022/10/18 05:08:31;;;;;;;33.17;23.42;;;;;;;13.94;100.00;102441.44;5031795;28;20053;-55
2022/10/18 05:10:59;;;;;;;33.25;23.75;;;;;;;13.95;100.00;102436.06;5028625;28;20144;-56
2022/10/18 05:13:27;;;;;;;31.88;22.20;;;;;;;13.93;100.00;102437.91;5028037;28;20071;-56
2022/10/18 05:15:58;;;;;;;30.98;20.88;;;;;;;13.95;100.00;102430.75;5029265;28;20045;-56
2022/10/18 05:18:26;;;;;;;28.80;21.25;;;;;;;13.95;100.00;102437.84;5044212;28;20118;-56
2022/10/18 05:20:56;;;;;;;29.77;22.42;;;;;;;13.94;100.00;102438.78;5055837;28;20049;-56
2022/10/18 05:23:24;;;;;;;28.67;21.20;;;;;;;13.94;100.00;102428.22;5052779;28;20041;-56
2022/10/18 05:25:53;;;;;;;26.98;20.77;;;;;;;13.93;100.00;102432.63;5052492;28;20123;-56
2022/10/18 05:28:23;;;;;;;25.52;20.25;;;;;;;13.90;100.00;102442.53;5034956;28;20053;-56
2022/10/18 05:31:10;;;;;;;22.50;18.30;;;;;;;13.92;100.00;102449.44;5055591;28;20507;-55
2022/10/18 05:33:38;;;;;;;23.38;18.33;;;;;;;13.91;100.00;102447.75;5055569;28;20049;-56
2022/10/18 05:36:09;;;;;;;22.45;17.52;;;;;;;13.85;100.00;102440.13;5056026;28;20474;-56
2022/10/18 05:38:39;;;;;;;21.02;17.88;;;;;;;13.82;100.00;102437.66;5055770;28;20167;-57
2022/10/18 05:41:07;;;;;;;21.65;16.77;;;;;;;13.84;100.00;102441.09;5053477;28;20072;-54
2022/10/18 05:43:37;;;;;;;19.05;16.63;;;;;;;13.85;100.00;102446.28;5052276;28;20049;-46
2022/10/18 05:46:07;;;;;;;34.08;17.25;;;;;;;13.82;100.00;102448.22;5054522;28;20041;-50
2022/10/18 05:48:41;;;;;;;22.75;16.88;;;;;;;13.80;100.00;102448.31;5055244;28;20079;-49
2022/10/18 05:51:11;;;;;;;20.88;15.98;;;;;;;13.78;100.00;102450.16;5055212;28;20495;-46
2022/10/18 05:53:39;;;;;;;20.98;16.08;;;;;;;13.78;100.00;102457.25;5055167;28;20412;-47
2022/10/18 05:56:10;;;;;;;19.95;16.20;;;;;;;13.79;100.00;102456.34;5055120;28;20119;-47
2022/10/18 05:58:39;;;;;;;18.48;15.20;;;;;;;13.77;100.00;102458.19;5055648;28;20127;-46
2022/10/18 06:01:08;;;;;;;18.92;16.27;;;;;;;13.78;100.00;102465.19;5054876;28;20408;-49
2022/10/18 06:03:36;;;;;;;18.63;15.82;;;;;;;13.76;100.00;102464.44;5054798;28;20131;-49
2022/10/18 06:06:07;;;;;;;24.42;16.70;;;;;;;13.81;100.00;102472.94;5054910;28;20128;-53
2022/10/18 06:08:36;;;;;;;23.08;16.08;;;;;;;13.76;100.00;102482.94;5054962;28;20049;-48
2022/10/18 06:11:07;;;;;;;22.13;17.00;;;;;;;13.74;100.00;102488.28;5054727;28;20045;-49
2022/10/18 06:13:35;;;;;;;24.88;18.38;;;;;;;13.73;100.00;102491.00;5054963;28;20041;-46
2022/10/18 06:16:03;;;;;;;25.00;18.85;;;;;;;13.71;100.00;102488.44;5054676;28;20055;-50
2022/10/18 06:18:31;;;;;;;28.77;20.00;;;;;;;13.68;100.00;102489.47;5054437;28;20060;-49
2022/10/18 06:20:59;;;;;;;34.92;20.15;;;;;;;13.79;100.00;102499.47;5054600;28;20060;-47
2022/10/18 06:23:28;;;;;;;34.28;20.85;;;;;;;13.75;100.00;102505.88;5054528;28;20381;-48
2022/10/18 06:26:00;;;;;;;33.88;20.77;;;;;;;13.73;100.00;102506.88;5052087;28;20490;-49
2022/10/18 06:28:29;;;;;;;32.75;20.70;;;;;;;13.74;100.00;102504.16;5050221;28;20041;-48
2022/10/18 06:30:58;;;;;;;33.78;20.02;;;;;;;13.76;100.00;102509.38;5033383;28;20060;-55
2022/10/18 06:33:26;;;;;;;34.65;20.58;;;;;;;13.75;100.00;102507.66;5051512;28;20662;-55
2022/10/18 06:35:55;;;;;;;33.90;18.55;;;;;;;13.71;100.00;102512.25;5054326;28;20048;-55
2022/10/18 06:38:24;;;;;;;28.80;17.80;;;;;;;13.71;100.00;102524.63;5054355;28;20052;-55
2022/10/18 06:40:52;;;;;;;30.27;17.70;;;;;;;13.58;100.00;102524.38;5033188;28;20044;-54
2022/10/18 06:43:22;;;;;;;29.15;17.40;;;;;;;13.59;100.00;102524.31;5051407;28;20064;-55
2022/10/18 06:45:51;;;;;;;29.48;18.95;;;;;;;13.58;100.00;102522.63;5053028;28;20053;-54
2022/10/18 06:48:19;;;;;;;25.83;16.90;;;;;;;13.64;100.00;102524.09;5048896;28;20079;-54
2022/10/18 06:50:52;;;;;;;25.58;17.10;;;;;;;13.65;100.00;102539.03;5052495;28;20045;-55
2022/10/18 06:53:20;;;;;;;27.95;16.73;;;;;;;13.61;100.00;102537.47;5053826;28;20087;-56
2022/10/18 06:55:48;;;;;;;27.38;17.83;;;;;;;13.62;100.00;102550.59;5053692;28;20051;-54
2022/10/18 06:58:16;;;;;;;27.35;17.73;;;;;;;13.62;100.00;102558.53;5053985;28;20500;-56
2022/10/18 07:00:45;;;;;;;27.13;16.88;;;;;;;13.51;100.00;102556.44;5053693;28;20057;-55
2022/10/18 07:03:14;;;;;;;27.10;16.40;;;;;;;13.56;100.00;102544.78;5053579;28;20111;-54
2022/10/18 07:05:42;;;;;;;27.70;16.60;;;;;;;13.51;100.00;102556.44;5050490;28;20064;-56
2022/10/18 07:08:10;;;;;;;27.33;17.27;;;;;;;13.55;100.00;102567.69;5050043;28;20474;-56
2022/10/18 07:10:38;;;;;;;24.85;16.27;;;;;;;13.54;100.00;102581.84;5051289;28;20051;-55
2022/10/18 07:13:06;;;;;;;22.98;15.85;;;;;;;13.55;100.00;102577.41;5053177;28;20061;-55
2022/10/18 07:16:02;;;;;;;27.25;16.52;;;;;;;13.59;100.00;102563.94;5050843;28;20080;-54
2022/10/18 07:18:30;;;;;;;24.58;16.33;;;;;;;13.58;100.00;102572.84;5048039;28;20503;-54
2022/10/18 07:21:01;;;;;;;29.05;16.20;;;;;;;13.58;100.00;102580.78;5049791;28;20116;-55
2022/10/18 07:23:29;;;;;;;27.13;17.00;;;;;;;13.55;100.00;102583.53;5033524;28;20196;-55
2022/10/18 07:25:57;;;;;;;28.88;16.80;;;;;;;13.71;100.00;102585.44;5053247;28;20071;-51
2022/10/18 07:28:25;;;;;;;23.88;14.93;;;;;;;13.77;100.00;102591.28;5053193;28;20041;-51
2022/10/18 07:30:54;;;;;;;24.55;15.70;;;;;;;13.94;100.00;102594.84;5053030;28;20045;-51
2022/10/18 07:33:24;;;;;;;23.00;15.18;;;;;;;14.11;100.00;102594.81;5053044;28;20091;-49
2022/10/18 07:35:52;;;;;;;20.67;13.63;;;;;;;14.31;100.00;102591.09;5053037;28;20041;-51
2022/10/18 07:38:21;;;;;;;21.05;13.93;;;;;;;14.41;100.00;102595.91;5052975;28;20523;-52
2022/10/18 07:40:56;;;;;;;23.92;14.43;;;;;;;14.62;100.00;102592.09;5052124;28;20041;-48
2022/10/18 07:43:25;;;;;;;19.10;12.23;;;;;;;14.70;100.00;102597.84;5052875;28;20048;-52
2022/10/18 07:45:53;;;;;;;20.65;12.85;;;;;;;15.02;100.00;102603.19;5052675;28;20051;-51
2022/10/18 07:48:23;;;;;;;17.95;11.13;;;;;;;15.02;100.00;102602.31;5052717;28;20495;-50
2022/10/18 07:50:51;;;;;;;18.48;11.23;;;;;;;15.26;100.00;102594.75;5052907;28;20057;-49
2022/10/18 07:53:21;;;;;;;15.93;10.65;;;;;;;14.99;100.00;102597.19;5052624;28;20095;-49
2022/10/18 07:55:49;;;;;;;19.10;11.38;;;;;;;15.14;100.00;102608.72;5052330;28;20098;-51
2022/10/18 07:58:17;;;;;;;15.90;9.68;;;;;;;15.38;100.00;102615.25;5049163;28;20061;-49
2022/10/18 08:00:45;;;;;;;16.02;10.68;;;;;;;15.62;100.00;102617.41;5051103;28;20045;-48
2022/10/18 08:03:13;;;;;;;15.23;9.27;;;;;;;15.64;100.00;102614.69;5034910;28;20330;-48
2022/10/18 08:05:43;;;;;;;15.23;8.55;;;;;;;15.76;100.00;102618.41;5052348;28;20048;-51
2022/10/18 08:08:11;;;;;;;13.88;9.93;;;;;;;15.89;100.00;102620.25;5034485;28;20553;-48
2022/10/18 08:10:39;;;;;;;17.60;9.35;;;;;;;16.07;100.00;102622.75;5052616;28;20547;-49
2022/10/18 08:13:07;;;;;;;15.18;8.30;;;;;;;16.18;100.00;102623.00;5052355;28;20095;-51
2022/10/18 08:15:35;;;;;;;12.88;8.23;;;;;;;16.36;100.00;102626.31;5052384;28;20055;-56
2022/10/18 08:18:03;;;;;;;16.70;8.10;;;;;;;16.42;100.00;102630.38;5048188;28;20538;-56
2022/10/18 08:20:32;;;;;;;14.38;9.23;;;;;;;16.68;100.00;102636.72;5048997;28;20466;-56
2022/10/18 08:23:01;;;;;;;13.85;7.80;;;;;;;16.83;100.00;102645.53;5049199;28;20041;-56
2022/10/18 08:25:29;;;;;;;13.73;7.50;;;;;;;16.87;100.00;102638.22;5052344;28;20500;-51
2022/10/18 08:27:58;;;;;;;16.33;6.97;;;;;;;16.81;100.00;102639.47;5052139;28;20056;-50
2022/10/18 08:30:26;;;;;;;17.02;7.60;;;;;;;17.00;100.00;102641.84;5052047;28;20103;-51
2022/10/18 08:32:54;;;;;;;13.90;6.78;;;;;;;17.11;100.00;102632.31;5051951;28;20037;-50
2022/10/18 08:35:24;;;;;;;13.05;6.47;;;;;;;17.08;100.00;102645.78;5051921;28;20384;-50
2022/10/18 08:37:53;;;;;;;13.38;5.57;;;;;;;17.10;100.00;102649.19;5052162;28;20068;-52
2022/10/18 08:40:22;;;;;;;13.70;5.70;;;;;;;17.22;100.00;102651.09;5051973;28;20079;-53
2022/10/18 08:43:00;;;;;;;13.13;5.25;;;;;;;17.27;100.00;102648.13;5050197;28;20526;-54
2022/10/18 08:45:29;;;;;;;15.90;6.05;;;;;;;17.32;100.00;102659.31;5048530;28;20049;-54
2022/10/18 08:48:21;;;;;;;12.40;5.10;;;;;;;17.27;100.00;102654.28;5051862;28;20495;-53
2022/10/18 08:50:50;;;;;;;13.30;5.25;;;;;;;17.43;100.00;102648.81;5051885;28;20052;-57
2022/10/18 08:53:25;;;;;;;11.38;4.78;;;;;;;17.49;100.00;102659.06;5049352;28;20049;-57
2022/10/18 08:56:00;;;;;;;13.18;3.80;;;;;;;17.33;100.00;102653.00;5048340;28;20041;-57
2022/10/18 08:58:32;;;;;;;11.02;3.15;;;;;;;17.56;100.00;102655.03;5051438;28;20053;-57
2022/10/18 09:01:12;;;;;;;13.45;4.22;;;;;;;17.61;100.00;102670.66;5051675;28;20503;-57
2022/10/18 09:03:58;;;;;;;10.30;3.03;;;;;;;17.58;100.00;102673.53;5051660;28;20496;-57
2022/10/18 09:06:31;;;;;;;11.13;2.88;;;;;;;17.72;100.00;102662.84;5051733;28;20503;-58
2022/10/18 09:09:05;;;;;;;;;;;;;;;17.85;100.00;102664.69;5049083;28;20438;-57
2022/10/18 09:11:51;;;;;;;13.50;3.40;;;;;;;17.86;100.00;102656.59;5048535;28;19921;-57
2022/10/18 09:14:48;;;;;;;11.38;2.55;;;;;;;17.98;100.00;102660.25;5048302;28;20053;-52
2022/10/18 09:17:26;;;;;;;7.82;2.53;;;;;;;17.98;100.00;102668.22;5046345;28;20061;-51
2022/10/18 09:20:11;;;;;;;12.60;2.47;;;;;;;18.12;100.00;102655.78;5051545;28;20496;-51
2022/10/18 09:22:50;;;;;;;8.52;2.63;;;;;;;18.23;100.00;102655.91;5049413;28;20045;-49
2022/10/18 09:25:20;;;;;;;10.80;2.47;;;;;;;18.32;100.00;102652.59;5048336;28;20045;-52
2022/10/18 09:27:54;;;;;;;8.40;2.00;;;;;;;18.41;100.00;102662.59;5048154;28;20045;-51
2022/10/18 09:30:36;;;;;;;10.93;2.15;;;;;;;18.52;100.00;102663.69;5047968;28;20072;-53
2022/10/18 09:33:18;;;;;;;13.77;2.45;;;;;;;18.45;100.00;102659.72;5045626;28;20463;-52
2022/10/18 09:35:52;;;;;;;8.07;1.67;;;;;;;18.65;100.00;102667.19;5050747;28;20095;-54
2022/10/18 09:38:24;;;;;;;9.77;2.05;;;;;;;18.83;100.00;102665.00;5051658;28;20040;-54
2022/10/18 09:41:00;;;;;;;8.15;2.33;;;;;;;19.16;100.00;102660.91;5051312;28;20080;-54
2022/10/18 09:43:41;;;;;;;8.50;1.98;;;;;;;19.30;100.00;102664.38;5051575;28;20041;-54
2022/10/18 09:46:10;;;;;;;5.55;1.33;;;;;;;19.58;100.00;102661.34;5048045;28;20455;-51
2022/10/18 09:48:45;;;;;;;10.15;1.73;;;;;;;19.97;100.00;102662.94;5028797;28;20135;-53
2022/10/18 09:51:20;;;;;;;8.80;1.80;;;;;;;19.91;98.86;102670.47;5033390;28;20072;-51
2022/10/18 09:54:03;;;;;;;6.85;1.73;;;;;;;19.91;92.96;102670.47;5051291;28;20045;-54
2022/10/18 09:56:40;;;;;;;10.40;2.25;;;;;;;20.34;97.49;102668.97;5050806;28;20508;-54
2022/10/18 09:59:30;;;;;;;10.40;1.67;;;;;;;20.57;91.88;102671.63;5047298;28;20106;-52
2022/10/18 10:01:58;;;;;;;10.05;1.92;;;;;;;20.69;89.25;102678.72;5047341;28;20527;-55
2022/10/18 10:04:26;;;;;;;11.55;2.10;;;;;;;20.54;85.53;102672.72;5030404;28;20102;-55
2022/10/18 10:06:56;;;;;;;9.02;1.88;;;;;;;20.83;85.05;102682.09;5036057;28;20106;-53
2022/10/18 10:09:28;;;;;;;12.05;1.85;;;;;;;20.74;80.22;102676.53;5054759;28;20045;-54
2022/10/18 10:11:57;;;;;;;7.07;1.60;;;;;;;21.31;80.08;102679.09;5054677;28;20431;-54
2022/10/18 10:14:29;;;;;;;7.55;1.70;;;;;;;21.37;76.30;102680.41;5054997;28;20041;-54
2022/10/18 10:17:01;;;;;;;11.10;1.60;;;;;;;21.81;78.85;102677.72;5054524;28;20048;-53
2022/10/18 10:19:33;;;;;;;9.07;1.60;;;;;;;21.70;72.12;102682.13;5050061;28;20476;-53
2022/10/18 10:22:05;;;;;;;7.00;1.70;;;;;;;21.77;70.65;102686.00;5051698;28;20045;-56
2022/10/18 10:24:40;;;;;;;10.13;2.08;;;;;;;21.57;68.22;102682.31;5054346;28;20037;-55
2022/10/18 10:27:16;;;;;;;6.90;1.42;;;;;;;21.53;67.99;102680.00;5054317;28;20045;-54
2022/10/18 10:29:55;;;;;;;7.20;1.48;;;;;;;22.35;69.53;102686.53;5054346;28;20048;-56
2022/10/18 10:32:27;;;;;;;8.90;1.60;;;;;;;22.55;67.32;102692.81;5054368;28;20051;-54
2022/10/18 10:35:00;;;;;;;9.27;1.33;;;;;;;23.04;65.04;102687.63;5054327;28;20094;-54
2022/10/18 10:37:33;;;;;;;8.52;1.23;;;;;;;23.13;66.74;102682.28;5054132;28;20041;-56
2022/10/18 10:40:18;;;;;;;8.40;1.27;;;;;;;23.08;61.76;102679.19;5051818;28;20194;-55
2022/10/18 10:43:00;;;;;;;6.60;1.50;;;;;;;23.66;65.86;102684.75;5051111;28;20518;-54
2022/10/18 10:46:02;;;;;;;7.28;1.67;;;;;;;23.71;61.93;102686.03;5054017;28;20522;-56
2022/10/18 10:48:33;;;;;;;8.77;1.42;;;;;;;23.85;58.08;102681.19;5054068;28;20542;-56
2022/10/18 10:51:07;;;;;;;9.93;1.80;;;;;;;23.88;58.19;102675.53;5052933;28;20049;-57
2022/10/18 10:53:44;;;;;;;4.13;1.40;;;;;;;23.26;56.88;102683.88;5050974;28;20040;-56
2022/10/18 10:56:25;;;;;;;8.77;1.50;;;;;;;23.71;56.71;102695.91;5052573;28;20124;-56
2022/10/18 10:58:55;;;;;;;6.75;1.40;;;;;;;23.75;55.85;102690.13;5053720;28;20110;-57
2022/10/18 11:01:30;;;;;;;7.72;1.40;;;;;;;24.19;52.25;102681.56;5053758;28;20045;-56
2022/10/18 11:04:01;;;;;;;7.53;1.60;;;;;;;24.58;54.13;102692.19;5053528;28;20048;-57
2022/10/18 11:06:48;;;;;;;9.88;1.75;;;;;;;24.31;51.18;102690.31;5053545;28;20040;-59
2022/10/18 11:09:31;;;;;;;7.40;1.48;;;;;;;24.05;52.05;102693.63;5050934;28;20052;-57
2022/10/18 11:12:12;;;;;;;7.88;1.50;;;;;;;24.71;52.07;102697.25;5051048;28;20484;-57
2022/10/18 11:14:44;;;;;;;6.88;1.13;;;;;;;24.64;52.55;102698.84;5053845;28;20051;-61
2022/10/18 11:17:23;;;;;;;6.57;1.17;;;;;;;24.44;53.80;102690.81;5050158;28;20095;-61
2022/10/18 11:20:23;;;;;;;6.05;1.30;;;;;;;24.92;52.57;102688.09;5028922;28;20500;-61
2022/10/18 11:22:59;;;;;;;8.55;1.60;;;;;;;24.67;53.36;102698.56;5007790;28;20064;-62
2022/10/18 11:25:44;;;;;;;10.85;1.70;;;;;;;25.14;50.22;102700.25;5030284;28;20049;-61
2022/10/18 11:28:21;;;;;;;5.78;1.20;;;;;;;25.27;49.80;102695.34;5029313;28;20064;-61